createdAt,value
2019-02-19T00:01:35.165Z,37.95
2019-02-19T00:04:06.053Z,37.53
2019-02-19T00:14:15.353Z,34.35
2019-02-19T00:16:45.844Z,34.70
2019-02-19T00:19:16.314Z,36.25
2019-02-19T00:21:46.855Z,37.55
2019-02-19T00:24:17.373Z,33.63
2019-02-19T00:26:47.863Z,35.63
2019-02-19T00:29:18.468Z,35.48
2019-02-19T00:31:48.924Z,36.35
2019-02-19T00:34:19.474Z,38.50
2019-02-19T00:36:49.956Z,38.58
2019-02-19T00:39:20.423Z,34.20
2019-02-19T00:41:51.033Z,37.25
2019-02-19T00:44:21.573Z,37.55
2019-02-19T00:46:52.073Z,35.95
2019-02-19T00:49:22.557Z,35.43
2019-02-19T00:51:53.053Z,36.63
2019-02-19T00:54:23.505Z,35.60
2019-02-19T00:56:54.023Z,34.00
2019-02-19T00:59:24.533Z,34.40
2019-02-19T01:01:55.073Z,34.18
2019-02-19T01:04:25.693Z,36.13
2019-02-19T01:06:56.232Z,38.80
2019-02-19T01:09:26.873Z,37.78
2019-02-19T01:11:57.796Z,34.27
2019-02-19T01:14:28.284Z,37.93
2019-02-19T01:16:58.778Z,38.45
2019-02-19T01:19:29.243Z,37.33
2019-02-19T01:21:59.739Z,34.48
2019-02-19T01:24:30.214Z,31.55
2019-02-19T01:27:00.794Z,36.42
2019-02-19T01:29:31.314Z,37.30
2019-02-19T01:32:01.834Z,37.15
2019-02-19T01:34:32.393Z,36.73
2019-02-19T01:37:02.956Z,35.58
2019-02-19T01:39:33.496Z,34.53
2019-02-19T01:42:04.084Z,36.48
2019-02-19T01:44:34.614Z,36.80
2019-02-19T01:47:05.103Z,38.58
2019-02-19T01:49:35.609Z,36.53
2019-02-19T01:52:06.169Z,38.08
2019-02-19T01:54:36.687Z,37.58
2019-02-19T01:57:07.225Z,38.30
2019-02-19T01:59:37.673Z,36.98
2019-02-19T02:02:08.154Z,38.42
2019-02-19T02:04:38.673Z,35.95
2019-02-19T02:07:09.165Z,35.33
2019-02-19T02:09:39.696Z,36.80
2019-02-19T02:12:10.173Z,34.23
2019-02-19T02:14:40.733Z,37.25
2019-02-19T02:17:11.274Z,36.10
2019-02-19T02:19:41.774Z,37.00
2019-02-19T02:22:12.278Z,37.93
2019-02-19T02:24:42.744Z,36.77
2019-02-19T02:27:13.258Z,36.30
2019-02-19T02:29:43.744Z,33.23
2019-02-19T02:32:14.257Z,35.33
2019-02-19T02:34:44.731Z,36.65
2019-02-19T02:37:15.288Z,36.88
2019-02-19T02:39:45.819Z,36.75
2019-02-19T02:42:16.348Z,35.25
2019-02-19T02:44:46.830Z,36.75
2019-02-19T02:47:17.358Z,36.20
2019-02-19T02:49:47.838Z,35.10
2019-02-19T02:52:18.418Z,35.92
2019-02-19T02:54:48.911Z,36.25
2019-02-19T02:57:19.447Z,34.95
2019-02-19T02:59:49.877Z,36.03
2019-02-19T03:02:20.407Z,37.28
2019-02-19T03:04:50.901Z,36.15
2019-02-19T03:07:42.387Z,38.13
2019-02-19T03:10:12.908Z,38.05
2019-02-19T03:12:43.437Z,38.50
2019-02-19T03:15:14.788Z,36.08
2019-02-19T03:17:46.308Z,37.58
2019-02-19T03:20:16.794Z,34.23
2019-02-19T03:22:47.319Z,36.80
2019-02-19T03:25:17.800Z,33.75
2019-02-19T03:27:48.347Z,33.63
2019-02-19T03:30:18.896Z,34.55
2019-02-19T03:32:49.479Z,36.40
2019-02-19T03:35:19.938Z,37.53
2019-02-19T03:37:50.497Z,34.92
2019-02-19T03:40:21.985Z,35.28
2019-02-19T03:42:52.548Z,34.98
2019-02-19T03:45:23.170Z,31.73
2019-02-19T03:47:53.737Z,36.17
2019-02-19T03:50:24.237Z,37.25
2019-02-19T03:52:54.829Z,35.45
2019-02-19T03:55:25.475Z,36.93
2019-02-19T03:57:56.000Z,35.75
2019-02-19T04:00:26.469Z,31.30
2019-02-19T04:02:56.954Z,34.40
2019-02-19T04:05:27.477Z,35.50
2019-02-19T04:07:57.921Z,32.35
2019-02-19T04:10:28.428Z,38.65
2019-02-19T04:12:58.917Z,35.35
2019-02-19T04:15:29.439Z,35.78
2019-02-19T04:17:59.918Z,36.80
2019-02-19T04:20:30.389Z,36.00
2019-02-19T04:23:00.887Z,37.40
2019-02-19T04:25:31.438Z,34.88
2019-02-19T04:28:01.917Z,34.38
2019-02-19T04:30:32.438Z,35.73
2019-02-19T04:33:02.929Z,36.28
2019-02-19T04:35:33.418Z,39.03
2019-02-19T04:38:03.918Z,35.68
2019-02-19T04:40:34.418Z,35.52
2019-02-19T04:43:04.914Z,36.40
2019-02-19T04:45:35.428Z,36.42
2019-02-19T04:48:05.892Z,35.43
2019-02-19T04:50:36.441Z,35.58
2019-02-19T04:53:06.978Z,34.83
2019-02-19T04:55:37.540Z,36.88
2019-02-19T04:58:08.037Z,37.20
2019-02-19T05:00:38.667Z,39.90
2019-02-19T05:03:09.158Z,38.85
2019-02-19T05:05:39.670Z,37.13
2019-02-19T05:08:10.137Z,35.63
2019-02-19T05:10:40.637Z,36.33
2019-02-19T05:13:11.104Z,36.00
2019-02-19T05:15:41.608Z,30.80
2019-02-19T05:18:12.067Z,33.85
2019-02-19T05:20:42.611Z,34.58
2019-02-19T05:23:13.168Z,34.13
2019-02-19T05:25:43.720Z,34.30
2019-02-19T05:28:14.221Z,33.05
2019-02-19T05:30:44.909Z,36.23
2019-02-19T05:33:15.419Z,33.50
2019-02-19T05:35:45.989Z,34.05
2019-02-19T05:38:17.567Z,38.35
2019-02-19T05:40:48.370Z,35.38
2019-02-19T05:43:19.037Z,37.15
2019-02-19T05:45:49.559Z,35.52
2019-02-19T05:48:20.059Z,35.08
2019-02-19T05:50:50.622Z,34.05
2019-02-19T05:53:21.197Z,33.80
2019-02-19T05:55:51.735Z,33.95
2019-02-19T05:58:45.556Z,30.75
2019-02-19T06:01:19.666Z,29.37
2019-02-19T06:03:52.609Z,33.78
2019-02-19T06:06:24.778Z,35.15
2019-02-19T06:08:55.387Z,35.30
2019-02-19T06:11:25.928Z,37.03
2019-02-19T06:13:56.558Z,33.35
2019-02-19T06:16:27.097Z,33.58
2019-02-19T06:18:57.578Z,35.28
2019-02-19T06:21:28.108Z,32.67
2019-02-19T06:24:02.588Z,33.10
2019-02-19T06:26:59.683Z,33.40
2019-02-19T06:29:33.639Z,34.38
2019-02-19T06:35:25.457Z,33.67
2019-02-19T06:37:59.600Z,34.48
2019-02-19T06:40:30.567Z,34.83
2019-02-19T06:43:03.568Z,34.35
2019-02-19T06:45:34.098Z,33.20
2019-02-19T06:48:04.598Z,35.63
2019-02-19T06:50:35.242Z,36.40
2019-02-19T06:53:05.737Z,34.40
2019-02-19T06:55:36.317Z,34.20
2019-02-19T06:58:06.838Z,35.68
2019-02-19T07:00:37.458Z,35.38
2019-02-19T07:03:32.577Z,33.02
2019-02-19T07:06:03.659Z,34.15
2019-02-19T07:08:34.237Z,35.73
2019-02-19T07:11:04.911Z,34.95
2019-02-19T07:13:35.467Z,33.23
2019-02-19T07:16:06.218Z,34.00
2019-02-19T07:18:37.129Z,35.13
2019-02-19T07:21:10.031Z,34.27
2019-02-19T07:23:40.575Z,33.53
2019-02-19T07:26:11.107Z,34.65
2019-02-19T07:28:41.648Z,34.15
2019-02-19T07:31:12.367Z,34.65
2019-02-19T07:33:42.897Z,35.52
2019-02-19T07:36:13.538Z,35.73
2019-02-19T07:38:45.037Z,34.15
2019-02-19T07:41:16.537Z,33.80
2019-02-19T07:43:47.038Z,31.68
2019-02-19T07:46:17.558Z,32.53
2019-02-19T07:48:49.392Z,32.33
2019-02-19T07:51:20.118Z,33.35
2019-02-19T07:54:26.238Z,33.38
2019-02-19T07:56:58.488Z,31.82
2019-02-19T08:02:00.209Z,33.23
2019-02-19T08:04:30.758Z,31.05
2019-02-19T08:07:01.338Z,34.38
2019-02-19T08:09:31.840Z,31.30
2019-02-19T08:12:02.362Z,31.10
2019-02-19T08:14:32.918Z,32.17
2019-02-19T08:17:03.509Z,33.00
2019-02-19T08:19:34.036Z,30.95
2019-02-19T08:22:04.696Z,30.70
2019-02-19T08:24:35.318Z,27.65
2019-02-19T08:27:05.848Z,24.52
2019-02-19T08:29:36.378Z,22.58
2019-02-19T08:32:09.835Z,21.80
2019-02-19T08:34:40.308Z,21.23
2019-02-19T08:37:10.846Z,20.95
2019-02-19T08:39:41.371Z,21.27
2019-02-19T08:42:11.908Z,20.68
2019-02-19T08:44:42.358Z,20.57
2019-02-19T08:47:13.035Z,20.70
2019-02-19T08:49:43.600Z,19.40
2019-02-19T08:52:14.119Z,18.67
2019-02-19T08:54:44.656Z,19.55
2019-02-19T08:57:15.308Z,18.87
2019-02-19T08:59:45.779Z,19.48
2019-02-19T09:02:16.298Z,19.82
2019-02-19T09:04:46.798Z,18.77
2019-02-19T09:07:17.378Z,19.00
2019-02-19T09:09:47.995Z,18.90
2019-02-19T09:12:18.545Z,16.80
2019-02-19T09:14:49.486Z,17.55
2019-02-19T09:17:19.999Z,16.70
2019-02-19T09:19:50.488Z,16.50
2019-02-19T09:22:21.018Z,17.45
2019-02-19T09:24:51.579Z,16.23
2019-02-19T09:27:22.096Z,17.27
2019-02-19T09:29:52.838Z,15.58
2019-02-19T09:32:23.399Z,17.82
2019-02-19T09:34:53.988Z,14.75
2019-02-19T09:37:24.527Z,15.55
2019-02-19T09:39:55.057Z,15.10
2019-02-19T09:42:25.785Z,15.13
2019-02-19T09:44:56.508Z,16.07
2019-02-19T09:47:27.028Z,16.42
2019-02-19T09:49:58.241Z,14.98
2019-02-19T09:52:28.888Z,15.68
2019-02-19T09:54:59.378Z,14.93
2019-02-19T09:57:32.649Z,14.60
2019-02-19T10:00:03.373Z,15.58
2019-02-19T10:02:34.088Z,13.93
2019-02-19T10:05:04.700Z,15.20
2019-02-19T10:07:35.229Z,14.47
2019-02-19T10:10:06.469Z,14.95
2019-02-19T10:12:37.018Z,15.05
2019-02-19T10:15:08.458Z,15.20
2019-02-19T10:17:39.009Z,15.20
2019-02-19T10:20:09.848Z,16.48
2019-02-19T10:22:40.397Z,15.28
2019-02-19T10:25:11.506Z,14.23
2019-02-19T10:27:42.050Z,12.88
2019-02-19T10:30:14.837Z,12.10
2019-02-19T10:32:45.414Z,13.13
2019-02-19T10:35:15.887Z,14.35
2019-02-19T10:37:46.480Z,12.37
2019-02-19T10:40:17.123Z,11.95
2019-02-19T10:42:47.691Z,13.50
2019-02-19T10:45:18.906Z,13.13
2019-02-19T10:47:49.467Z,13.38
2019-02-19T10:50:19.963Z,13.20
2019-02-19T10:52:51.794Z,13.13
2019-02-19T10:55:27.737Z,12.82
2019-02-19T10:57:58.279Z,13.22
2019-02-19T11:00:28.827Z,12.40
2019-02-19T11:02:59.458Z,13.43
2019-02-19T11:05:30.008Z,12.60
2019-02-19T11:08:00.518Z,12.98
2019-02-19T11:10:32.978Z,15.45
2019-02-19T11:13:03.578Z,15.53
2019-02-19T11:15:34.077Z,13.65
2019-02-19T11:18:04.798Z,15.65
2019-02-19T11:20:35.248Z,16.65
2019-02-19T11:23:08.421Z,15.60
2019-02-19T11:25:39.301Z,16.07
2019-02-19T11:28:11.520Z,14.68
2019-02-19T11:30:50.058Z,14.33
2019-02-19T11:35:45.667Z,13.90
2019-02-19T11:38:19.486Z,12.63
2019-02-19T11:40:50.128Z,12.33
2019-02-19T11:43:20.706Z,12.78
2019-02-19T11:45:55.544Z,12.82
2019-02-19T11:48:26.341Z,11.50
2019-02-19T11:50:57.268Z,12.93
2019-02-19T11:53:29.574Z,11.65
2019-02-19T11:56:03.518Z,12.37
2019-02-19T11:58:49.488Z,12.40
2019-02-19T12:01:24.059Z,11.38
2019-02-19T12:03:56.077Z,12.58
2019-02-19T12:06:26.631Z,12.28
2019-02-19T12:08:57.146Z,10.68
2019-02-19T12:11:27.790Z,11.75
2019-02-19T12:14:00.001Z,10.43
2019-02-19T12:16:33.657Z,10.48
2019-02-19T12:19:04.571Z,10.75
2019-02-19T12:21:36.516Z,11.43
2019-02-19T12:24:07.335Z,11.78
2019-02-19T12:26:45.191Z,11.95
2019-02-19T12:29:25.668Z,10.58
2019-02-19T12:32:04.986Z,11.43
2019-02-19T12:34:38.203Z,10.00
2019-02-19T12:37:27.026Z,10.90
2019-02-19T12:40:04.747Z,10.20
2019-02-19T12:42:49.479Z,10.35
2019-02-19T12:45:38.212Z,9.73
2019-02-19T12:48:59.016Z,11.25
2019-02-19T12:51:42.588Z,9.85
2019-02-19T12:54:24.506Z,10.90
2019-02-19T12:57:01.308Z,10.95
2019-02-19T12:59:32.007Z,10.88
2019-02-19T13:02:08.754Z,10.13
2019-02-19T13:04:59.588Z,10.65
2019-02-19T13:07:38.035Z,11.03
2019-02-19T13:10:12.756Z,11.55
2019-02-19T13:12:45.147Z,11.63
2019-02-19T13:15:15.977Z,10.80
2019-02-19T13:17:48.088Z,10.98
2019-02-19T13:20:21.699Z,11.50
2019-02-19T13:22:57.339Z,11.57
2019-02-19T13:25:31.508Z,9.45
2019-02-19T13:28:16.086Z,11.12
2019-02-19T13:30:47.787Z,12.23
2019-02-19T13:33:21.719Z,9.88
2019-02-19T13:35:53.888Z,10.80
2019-02-19T13:38:25.497Z,10.58
2019-02-19T13:40:56.018Z,11.12
2019-02-19T13:43:26.688Z,10.88
2019-02-19T13:45:57.258Z,11.85
2019-02-19T13:48:27.895Z,10.93
2019-02-19T13:50:58.532Z,12.00
2019-02-19T13:53:46.557Z,10.53
2019-02-19T13:56:17.164Z,10.13
2019-02-19T13:58:47.750Z,9.73
2019-02-19T14:01:18.484Z,10.32
2019-02-19T14:03:49.238Z,9.78
2019-02-19T14:06:20.069Z,9.98
2019-02-19T14:08:52.891Z,11.28
2019-02-19T14:25:44.798Z,9.20
2019-02-19T14:28:35.426Z,9.78
2019-02-19T14:31:23.507Z,9.73
2019-02-19T14:34:12.908Z,9.55
2019-02-19T14:37:09.761Z,9.45
2019-02-19T14:46:16.836Z,9.68
2019-02-19T14:52:22.836Z,8.83
2019-02-19T14:55:04.932Z,9.88
2019-02-19T14:58:00.395Z,10.25
2019-02-19T15:00:49.801Z,11.55
2019-02-19T15:03:40.877Z,11.00
2019-02-19T15:06:49.071Z,11.20
2019-02-19T15:09:48.329Z,9.60
2019-02-19T15:12:49.807Z,10.60
2019-02-19T15:15:39.218Z,11.83
2019-02-19T15:18:28.459Z,11.15
2019-02-19T15:21:28.146Z,10.40
2019-02-19T15:24:19.821Z,12.05
2019-02-19T15:27:10.818Z,12.93
2019-02-19T15:30:33.518Z,12.68
2019-02-19T15:33:35.897Z,12.88
2019-02-19T15:36:40.358Z,14.65
2019-02-19T15:43:05.534Z,13.80
2019-02-19T15:46:24.846Z,16.10
2019-02-19T15:49:10.247Z,13.50
2019-02-19T15:52:09.118Z,23.15
2019-02-19T15:54:49.948Z,42.50
2019-02-19T15:57:40.141Z,27.27
2019-02-19T16:00:29.300Z,25.55
2019-02-19T16:03:21.409Z,22.37
2019-02-19T16:06:14.000Z,22.35
2019-02-19T16:15:04.077Z,21.00
2019-02-19T16:17:50.836Z,18.32
2019-02-19T16:20:43.498Z,18.60
2019-02-19T16:26:39.310Z,14.93
2019-02-19T16:29:37.777Z,17.62
2019-02-19T16:32:30.109Z,19.37
2019-02-19T16:35:18.352Z,21.15
2019-02-19T16:38:11.613Z,23.07
2019-02-19T16:40:57.028Z,21.57
2019-02-19T16:43:45.257Z,22.45
2019-02-19T16:46:34.685Z,20.37
2019-02-19T16:49:16.696Z,20.25
2019-02-19T16:51:57.298Z,24.18
2019-02-19T16:54:33.458Z,21.97
2019-02-19T16:57:12.280Z,20.20
2019-02-19T17:00:10.738Z,18.55
2019-02-19T17:03:08.931Z,17.12
2019-02-19T17:05:47.398Z,16.45
2019-02-19T17:08:38.425Z,17.87
2019-02-19T17:11:27.966Z,17.75
2019-02-19T17:14:35.028Z,17.12
2019-02-19T17:17:25.618Z,17.17
2019-02-19T17:20:26.471Z,18.32
2019-02-19T17:26:55.490Z,18.95
2019-02-19T17:29:40.597Z,17.42
2019-02-19T17:32:48.319Z,17.50
2019-02-19T17:35:42.128Z,16.95
2019-02-19T17:38:34.477Z,16.87
2019-02-19T17:41:11.399Z,17.60
2019-02-19T17:43:55.900Z,18.57
2019-02-19T17:46:40.066Z,19.27
2019-02-19T17:49:29.448Z,17.98
2019-02-19T17:52:18.808Z,18.65
2019-02-19T17:55:27.638Z,17.87
2019-02-19T17:58:21.070Z,19.67
2019-02-19T18:01:09.088Z,19.10
2019-02-19T18:04:25.488Z,20.08
2019-02-19T18:07:13.897Z,19.73
2019-02-19T18:10:09.079Z,21.27
2019-02-19T18:13:04.616Z,21.05
2019-02-19T18:16:02.663Z,25.23
2019-02-19T18:18:50.138Z,24.90
2019-02-19T18:21:22.398Z,23.50
2019-02-19T18:24:29.259Z,20.45
2019-02-19T18:27:14.498Z,20.27
2019-02-19T18:29:46.468Z,18.98
2019-02-19T18:32:19.191Z,18.07
2019-02-19T18:34:55.148Z,17.90
2019-02-19T18:37:26.218Z,17.95
2019-02-19T18:39:59.362Z,17.52
2019-02-19T18:42:34.619Z,18.35
2019-02-19T18:45:08.318Z,19.07
2019-02-19T18:47:38.938Z,18.90
2019-02-19T18:50:09.787Z,20.32
2019-02-19T18:52:40.449Z,17.95
2019-02-19T18:55:29.157Z,19.87
2019-02-19T18:58:32.006Z,17.57
2019-02-19T19:01:12.026Z,19.55
2019-02-19T19:03:45.317Z,19.02
2019-02-19T19:06:18.343Z,19.50
2019-02-19T19:08:49.050Z,20.35
2019-02-19T19:11:19.619Z,19.32
2019-02-19T19:13:50.148Z,18.67
2019-02-19T19:16:21.070Z,20.77
2019-02-19T19:19:00.299Z,18.80
2019-02-19T19:24:41.248Z,18.70
2019-02-19T19:27:11.851Z,19.95
2019-02-19T19:29:47.569Z,21.60
2019-02-19T19:32:51.846Z,20.62
2019-02-19T19:35:22.619Z,21.50
2019-02-19T19:38:04.276Z,22.62
2019-02-19T19:42:55.683Z,20.85
2019-02-19T19:48:00.201Z,20.60
2019-02-19T19:50:43.599Z,21.00
2019-02-19T19:53:32.346Z,19.87
2019-02-19T19:56:06.346Z,21.80
2019-02-19T19:59:33.878Z,22.40
2019-02-19T20:02:14.277Z,21.23
2019-02-19T20:04:44.798Z,21.02
2019-02-19T20:07:34.297Z,21.40
2019-02-19T20:10:08.728Z,21.23
2019-02-19T20:12:40.085Z,21.40
2019-02-19T20:15:10.859Z,22.47
2019-02-19T20:17:41.501Z,20.48
2019-02-19T20:20:12.078Z,21.20
2019-02-19T20:22:42.726Z,19.70
2019-02-19T20:25:16.128Z,20.57
2019-02-19T20:28:03.324Z,19.45
2019-02-19T20:30:53.938Z,19.40
2019-02-19T20:33:33.131Z,19.32
2019-02-19T20:36:15.927Z,18.90
2019-02-19T20:39:56.937Z,18.48
2019-02-19T20:42:18.862Z,18.65
2019-02-19T20:45:30.356Z,18.85
2019-02-19T20:48:16.220Z,17.82
2019-02-19T20:54:17.078Z,14.10
2019-02-19T20:56:48.866Z,10.20
2019-02-19T20:59:19.434Z,8.68
2019-02-19T21:01:59.438Z,8.10
2019-02-19T21:04:31.177Z,7.83
2019-02-19T21:07:05.189Z,8.23
2019-02-19T21:09:43.461Z,7.90
2019-02-19T21:12:09.708Z,8.25
2019-02-19T21:14:40.619Z,9.33
2019-02-19T21:17:12.331Z,9.98
2019-02-19T21:19:43.018Z,10.82
2019-02-19T21:22:13.657Z,12.00
2019-02-19T21:24:52.572Z,12.80
2019-02-19T21:27:26.224Z,11.65
2019-02-19T21:33:07.896Z,11.12
2019-02-19T21:40:31.276Z,10.58
2019-02-19T21:42:49.915Z,8.48
2019-02-19T21:45:20.708Z,8.85
2019-02-19T21:47:51.260Z,8.95
2019-02-19T21:50:21.965Z,9.05
2019-02-19T21:52:52.608Z,8.35
2019-02-19T21:55:25.211Z,8.60
2019-02-19T22:00:35.641Z,7.83
2019-02-19T22:03:06.157Z,9.10
2019-02-19T22:05:39.190Z,8.33
2019-02-19T22:08:09.669Z,8.78
2019-02-19T22:13:51.598Z,9.23
2019-02-19T22:16:22.177Z,9.03
2019-02-19T22:19:25.144Z,8.73
2019-02-19T22:23:29.231Z,8.80
2019-02-19T22:26:05.836Z,8.35
2019-02-19T22:28:36.721Z,8.08
2019-02-19T22:31:11.866Z,7.75
2019-02-19T22:33:41.098Z,7.45
2019-02-19T22:36:11.824Z,8.85
2019-02-19T22:39:18.448Z,7.67
2019-02-19T22:41:49.236Z,7.72
2019-02-19T22:44:28.577Z,8.10
2019-02-19T22:53:32.726Z,7.75
2019-02-19T22:56:12.738Z,7.47
2019-02-19T22:58:43.300Z,7.35
2019-02-19T23:01:31.258Z,7.90
2019-02-19T23:04:01.979Z,7.37
2019-02-19T23:10:43.258Z,6.42
2019-02-19T23:14:12.744Z,6.85
2019-02-19T23:17:23.156Z,6.65
2019-02-19T23:21:13.905Z,8.10
2019-02-19T23:27:17.307Z,7.15
2019-02-19T23:37:06.819Z,6.37
2019-02-19T23:42:43.338Z,7.42
2019-02-19T23:45:22.443Z,7.50
2019-02-19T23:48:00.518Z,7.87
2019-02-19T23:50:35.403Z,7.03
2019-02-19T23:53:05.918Z,7.30
2019-02-19T23:55:39.387Z,7.33
2019-02-19T23:58:10.028Z,8.08
